createdAt,value
2016-12-18T00:00:15.687Z,92.75
2016-12-18T00:00:41.795Z,92.46
2016-12-18T00:01:07.939Z,92.75
2016-12-18T00:01:34.103Z,92.75
2016-12-18T00:02:00.249Z,92.66
2016-12-18T00:02:26.353Z,92.75
2016-12-18T00:02:52.480Z,92.75
2016-12-18T00:03:18.632Z,92.66
2016-12-18T00:03:44.802Z,92.46
2016-12-18T00:04:10.928Z,92.27
2016-12-18T00:04:37.040Z,92.13
2016-12-18T00:05:03.167Z,92.08
2016-12-18T00:05:29.304Z,92.03
2016-12-18T00:05:55.479Z,91.94
2016-12-18T00:06:21.583Z,92.13
2016-12-18T00:06:47.736Z,92.32
2016-12-18T00:07:13.898Z,91.75
2016-12-18T00:07:40.060Z,91.56
2016-12-18T00:08:06.188Z,91.56
2016-12-18T00:08:32.298Z,91.66
2016-12-18T00:08:58.463Z,91.28
2016-12-18T00:09:24.608Z,91.28
2016-12-18T00:09:50.722Z,90.99
2016-12-18T00:10:16.845Z,90.61
2016-12-18T00:10:42.989Z,90.52
2016-12-18T00:11:09.104Z,90.23
2016-12-18T00:11:35.272Z,90.52
2016-12-18T00:12:01.381Z,90.8
2016-12-18T00:12:27.480Z,91.08
2016-12-18T00:12:53.661Z,90.61
2016-12-18T00:13:19.821Z,90.61
2016-12-18T00:13:45.968Z,90.33
2016-12-18T00:14:12.087Z,90.52
2016-12-18T00:14:38.224Z,90.42
2016-12-18T00:15:04.382Z,90.52
2016-12-18T00:15:30.526Z,89.94
2016-12-18T00:15:56.643Z,89.94
2016-12-18T00:16:22.777Z,90.52
2016-12-18T00:16:48.929Z,90.42
2016-12-18T00:17:15.071Z,90.7
2016-12-18T00:17:41.194Z,90.23
2016-12-18T00:18:07.314Z,90.33
2016-12-18T00:18:33.502Z,90.23
2016-12-18T00:18:59.632Z,90.23
2016-12-18T00:19:25.797Z,90.8
2016-12-18T00:19:51.911Z,91.18
2016-12-18T00:20:18.036Z,91.18
2016-12-18T00:20:44.167Z,91.18
2016-12-18T00:21:10.323Z,91.94
2016-12-18T00:21:36.449Z,91.66
2016-12-18T00:22:02.559Z,91.66
2016-12-18T00:22:28.697Z,92.22
2016-12-18T00:22:54.888Z,92.32
2016-12-18T00:23:20.983Z,91.94
2016-12-18T00:23:47.084Z,92.13
2016-12-18T00:24:13.234Z,92.41
2016-12-18T00:24:39.352Z,92.7
2016-12-18T00:25:05.495Z,92.41
2016-12-18T00:25:31.604Z,92.22
2016-12-18T00:25:57.722Z,92.41
2016-12-18T00:26:23.983Z,92.37
2016-12-18T00:26:50.132Z,92.41
2016-12-18T00:27:16.241Z,92.13
2016-12-18T00:27:42.368Z,92.22
2016-12-18T00:28:08.521Z,92.41
2016-12-18T00:28:34.720Z,92.7
2016-12-18T00:29:00.862Z,92.89
2016-12-18T00:29:26.983Z,92.8
2016-12-18T00:29:53.133Z,92.7
2016-12-18T00:30:19.274Z,92.22
2016-12-18T00:30:45.457Z,92.7
2016-12-18T00:31:11.578Z,92.41
2016-12-18T00:31:37.688Z,92.22
2016-12-18T00:32:03.794Z,92.22
2016-12-18T00:32:29.912Z,92.32
2016-12-18T00:32:56.040Z,92.03
2016-12-18T00:33:22.192Z,92.03
2016-12-18T00:33:48.317Z,92.22
2016-12-18T00:34:14.449Z,91.94
2016-12-18T00:34:40.581Z,92.22
2016-12-18T00:35:06.732Z,91.94
2016-12-18T00:35:32.898Z,91.94
2016-12-18T00:35:59.012Z,92.13
2016-12-18T00:36:25.134Z,92.32
2016-12-18T00:36:51.234Z,92.7
2016-12-18T00:37:17.352Z,92.22
2016-12-18T00:37:43.478Z,92.7
2016-12-18T00:38:09.583Z,92.22
2016-12-18T00:38:35.694Z,92.7
2016-12-18T00:39:01.850Z,92.7
2016-12-18T00:39:27.958Z,92.8
2016-12-18T00:39:54.059Z,92.61
2016-12-18T00:40:20.187Z,92.8
2016-12-18T00:40:46.373Z,93.27
2016-12-18T00:41:12.554Z,92.61
2016-12-18T00:41:38.748Z,93.18
2016-12-18T00:42:04.887Z,92.7
2016-12-18T00:42:31.009Z,93.08
2016-12-18T00:42:57.115Z,92.61
2016-12-18T00:43:23.225Z,93.37
2016-12-18T00:43:49.348Z,92.85
2016-12-18T00:44:15.464Z,93.79
2016-12-18T00:44:41.567Z,93.55
2016-12-18T00:45:07.697Z,93.08
2016-12-18T00:45:33.816Z,93.04
2016-12-18T00:45:59.934Z,93.23
2016-12-18T00:46:26.035Z,93.23
2016-12-18T00:46:52.154Z,93.89
2016-12-18T00:47:18.260Z,93.37
2016-12-18T00:47:44.375Z,93.08
2016-12-18T00:48:10.496Z,92.99
2016-12-18T00:48:36.606Z,92.75
2016-12-18T00:49:02.721Z,93.18
2016-12-18T00:49:28.840Z,93.37
2016-12-18T00:49:54.945Z,92.99
2016-12-18T00:50:21.049Z,92.8
2016-12-18T00:50:47.175Z,92.7
2016-12-18T00:51:13.292Z,92.89
2016-12-18T00:51:39.396Z,93.18
2016-12-18T00:52:05.517Z,93.27
2016-12-18T00:52:31.626Z,93.37
2016-12-18T00:52:57.747Z,93.65
2016-12-18T00:53:23.859Z,93.75
2016-12-18T00:53:49.964Z,93.6
2016-12-18T00:54:16.090Z,93.51
2016-12-18T00:54:42.200Z,93.75
2016-12-18T00:55:08.310Z,93.23
2016-12-18T00:55:34.437Z,93.7
2016-12-18T00:56:00.555Z,93.79
2016-12-18T00:56:26.656Z,93.79
2016-12-18T00:56:52.773Z,93.32
2016-12-18T00:57:18.895Z,93.6
2016-12-18T00:57:45.003Z,93.37
2016-12-18T00:58:11.121Z,93.51
2016-12-18T00:58:37.232Z,93.89
2016-12-18T00:59:03.357Z,93.89
2016-12-18T00:59:29.470Z,93.51
2016-12-18T00:59:55.580Z,93.89
2016-12-18T01:00:21.697Z,93.7
2016-12-18T01:00:47.814Z,93.37
2016-12-18T01:01:13.912Z,93.08
2016-12-18T01:01:40.029Z,93.65
2016-12-18T01:02:06.156Z,93.46
2016-12-18T01:02:32.287Z,93.94
2016-12-18T01:02:58.400Z,92.99
2016-12-18T01:03:24.517Z,93.18
2016-12-18T01:03:50.627Z,93.27
2016-12-18T01:04:16.752Z,93.37
2016-12-18T01:04:42.856Z,93.08
2016-12-18T01:05:08.971Z,92.89
2016-12-18T01:05:35.088Z,92.8
2016-12-18T01:06:01.197Z,92.8
2016-12-18T01:06:27.311Z,92.89
2016-12-18T01:06:53.438Z,92.8
2016-12-18T01:07:19.542Z,92.7
2016-12-18T01:07:45.644Z,92.99
2016-12-18T01:08:11.771Z,92.89
2016-12-18T01:08:37.884Z,92.89
2016-12-18T01:09:03.996Z,92.89
2016-12-18T01:09:30.113Z,92.8
2016-12-18T01:09:56.220Z,92.7
2016-12-18T01:10:22.346Z,93.37
2016-12-18T01:10:48.459Z,92.7
2016-12-18T01:11:14.566Z,93.18
2016-12-18T01:11:40.685Z,92.7
2016-12-18T01:12:06.797Z,92.7
2016-12-18T01:12:32.909Z,92.7
2016-12-18T01:12:59.029Z,92.89
2016-12-18T01:13:25.146Z,93.37
2016-12-18T01:13:51.249Z,92.8
2016-12-18T01:14:17.368Z,92.99
2016-12-18T01:14:43.488Z,92.7
2016-12-18T01:15:09.591Z,92.51
2016-12-18T01:15:35.708Z,92.61
2016-12-18T01:16:01.811Z,92.7
2016-12-18T01:16:27.937Z,92.7
2016-12-18T01:16:54.047Z,92.22
2016-12-18T01:17:20.157Z,92.13
2016-12-18T01:17:46.275Z,92.13
2016-12-18T01:18:12.396Z,92.32
2016-12-18T01:18:38.502Z,92.22
2016-12-18T01:19:04.615Z,92.32
2016-12-18T01:19:30.739Z,92.32
2016-12-18T01:19:56.847Z,92.41
2016-12-18T01:20:22.966Z,92.32
2016-12-18T01:20:49.074Z,92.41
2016-12-18T01:21:15.197Z,92.61
2016-12-18T01:21:41.320Z,92.32
2016-12-18T01:22:07.422Z,92.32
2016-12-18T01:22:33.536Z,91.94
2016-12-18T01:22:59.651Z,91.94
2016-12-18T01:23:25.762Z,92.13
2016-12-18T01:23:51.878Z,92.22
2016-12-18T01:24:18.006Z,92.22
2016-12-18T01:24:44.113Z,91.94
2016-12-18T01:25:10.224Z,92.22
2016-12-18T01:25:36.344Z,92.32
2016-12-18T01:26:02.455Z,92.22
2016-12-18T01:26:28.577Z,92.13
2016-12-18T01:26:54.681Z,92.41
2016-12-18T01:27:20.790Z,92.32
2016-12-18T01:27:46.909Z,92.32
2016-12-18T01:28:13.018Z,92.13
2016-12-18T01:28:39.131Z,92.22
2016-12-18T01:29:05.282Z,92.22
2016-12-18T01:29:31.395Z,91.94
2016-12-18T01:29:57.503Z,91.94
2016-12-18T01:30:23.626Z,92.32
2016-12-18T01:30:49.740Z,92.22
2016-12-18T01:31:15.853Z,92.51
2016-12-18T01:31:41.977Z,91.66
2016-12-18T01:32:08.099Z,91.56
2016-12-18T01:32:34.224Z,91.75
2016-12-18T01:33:00.337Z,91.66
2016-12-18T01:33:26.460Z,91.66
2016-12-18T01:33:52.565Z,91.94
2016-12-18T01:34:18.680Z,91.85
2016-12-18T01:34:44.798Z,92.32
2016-12-18T01:35:10.908Z,92.22
2016-12-18T01:35:37.012Z,91.94
2016-12-18T01:36:03.139Z,91.85
2016-12-18T01:36:29.252Z,92.22
2016-12-18T01:36:55.362Z,92.22
2016-12-18T01:37:21.487Z,92.32
2016-12-18T01:37:47.590Z,92.13
2016-12-18T01:38:13.720Z,92.22
2016-12-18T01:38:39.832Z,92.13
2016-12-18T01:39:05.938Z,92.13
2016-12-18T01:39:32.063Z,91.94
2016-12-18T01:39:58.171Z,91.94
2016-12-18T01:40:24.378Z,91.94
2016-12-18T01:40:50.497Z,92.32
2016-12-18T01:41:16.615Z,92.32
2016-12-18T01:41:42.719Z,92.66
2016-12-18T01:42:08.835Z,93.08
2016-12-18T01:42:34.957Z,92.8
2016-12-18T01:43:01.071Z,92.32
2016-12-18T01:43:27.182Z,92.51
2016-12-18T01:43:53.284Z,92.8
2016-12-18T01:44:19.411Z,92.66
2016-12-18T01:44:45.526Z,92.7
2016-12-18T01:45:11.636Z,92.75
2016-12-18T01:45:37.749Z,92.89
2016-12-18T01:46:03.875Z,92.99
2016-12-18T01:46:29.976Z,93.04
2016-12-18T01:46:56.095Z,93.23
2016-12-18T01:47:22.215Z,92.85
2016-12-18T01:47:48.326Z,93.6
2016-12-18T01:48:14.437Z,93.41
2016-12-18T01:48:40.546Z,93.32
2016-12-18T01:49:06.670Z,93.89
2016-12-18T01:49:32.799Z,92.85
2016-12-18T01:49:58.901Z,92.94
2016-12-18T01:50:25.016Z,92.94
2016-12-18T01:50:51.138Z,92.94
2016-12-18T01:51:17.245Z,92.85
2016-12-18T01:51:43.357Z,92.94
2016-12-18T01:52:09.476Z,93.32
2016-12-18T01:52:35.583Z,93.23
2016-12-18T01:53:01.691Z,92.85
2016-12-18T01:53:27.814Z,93.13
2016-12-18T01:53:53.924Z,93.37
2016-12-18T01:54:20.044Z,92.99
2016-12-18T01:54:46.148Z,93.08
2016-12-18T01:55:12.263Z,93.08
2016-12-18T01:55:38.387Z,92.61
2016-12-18T01:56:04.494Z,92.89
2016-12-18T01:56:30.599Z,92.89
2016-12-18T01:56:56.729Z,92.61
2016-12-18T01:57:22.838Z,93.08
2016-12-18T01:57:48.948Z,92.8
2016-12-18T01:58:15.068Z,92.7
2016-12-18T01:58:41.184Z,92.22
2016-12-18T01:59:07.288Z,92.22
2016-12-18T01:59:33.405Z,92.13
2016-12-18T01:59:59.507Z,92.22
2016-12-18T02:00:25.636Z,92.51
2016-12-18T02:00:51.746Z,91.56
2016-12-18T02:01:17.849Z,92.22
2016-12-18T02:01:43.976Z,92.13
2016-12-18T02:02:10.099Z,92.03
2016-12-18T02:02:36.204Z,92.13
2016-12-18T02:03:02.324Z,92.41
2016-12-18T02:03:28.442Z,92.51
2016-12-18T02:03:54.550Z,92.41
2016-12-18T02:04:20.660Z,92.13
2016-12-18T02:04:46.789Z,92.13
2016-12-18T02:05:12.893Z,91.85
2016-12-18T02:05:39.009Z,92.03
2016-12-18T02:06:05.113Z,92.22
2016-12-18T02:06:31.226Z,92.22
2016-12-18T02:06:57.351Z,92.7
2016-12-18T02:07:23.453Z,92.89
2016-12-18T02:07:49.568Z,92.51
2016-12-18T02:08:15.715Z,92.61
2016-12-18T02:08:41.825Z,92.61
2016-12-18T02:09:07.940Z,92.8
2016-12-18T02:09:34.062Z,92.41
2016-12-18T02:10:00.164Z,92.51
2016-12-18T02:10:26.268Z,92.22
2016-12-18T02:10:52.390Z,92.22
2016-12-18T02:11:18.507Z,92.41
2016-12-18T02:11:44.630Z,92.03
2016-12-18T02:12:10.737Z,91.85
2016-12-18T02:12:36.849Z,91.94
2016-12-18T02:13:03.006Z,91.94
2016-12-18T02:13:29.115Z,92.32
2016-12-18T02:13:55.222Z,91.94
2016-12-18T02:14:21.342Z,91.85
2016-12-18T02:14:47.453Z,92.22
2016-12-18T02:15:13.555Z,92.32
2016-12-18T02:15:39.678Z,91.94
2016-12-18T02:16:05.795Z,92.13
2016-12-18T02:16:31.899Z,92.13
2016-12-18T02:16:58.020Z,92.03
2016-12-18T02:17:24.136Z,92.13
2016-12-18T02:17:50.241Z,92.13
2016-12-18T02:18:16.354Z,92.32
2016-12-18T02:18:42.479Z,92.22
2016-12-18T02:19:08.585Z,92.32
2016-12-18T02:19:34.699Z,92.7
2016-12-18T02:20:00.820Z,92.7
2016-12-18T02:20:26.930Z,92.7
2016-12-18T02:20:53.033Z,92.61
2016-12-18T02:21:19.166Z,92.7
2016-12-18T02:21:45.280Z,92.61
2016-12-18T02:22:11.394Z,92.7
2016-12-18T02:22:37.495Z,92.51
2016-12-18T02:23:03.609Z,92.61
2016-12-18T02:23:29.729Z,92.51
2016-12-18T02:23:55.839Z,92.99
2016-12-18T02:24:21.947Z,92.7
2016-12-18T02:24:48.075Z,92.61
2016-12-18T02:25:14.182Z,92.51
2016-12-18T02:25:40.294Z,92.61
2016-12-18T02:26:06.414Z,92.61
2016-12-18T02:26:32.535Z,92.7
2016-12-18T02:26:58.638Z,93.18
2016-12-18T02:27:24.758Z,92.7
2016-12-18T02:27:50.867Z,92.89
2016-12-18T02:28:16.987Z,92.7
2016-12-18T02:28:43.097Z,92.7
2016-12-18T02:29:09.203Z,92.7
2016-12-18T02:29:35.331Z,92.41
2016-12-18T02:30:01.447Z,92.99
2016-12-18T02:30:27.557Z,92.89
2016-12-18T02:30:53.671Z,92.8
2016-12-18T02:31:19.791Z,92.7
2016-12-18T02:31:45.895Z,93.08
2016-12-18T02:32:12.012Z,93.08
2016-12-18T02:32:38.142Z,92.61
2016-12-18T02:33:04.242Z,92.61
2016-12-18T02:33:30.357Z,92.7
2016-12-18T02:33:56.463Z,93.08
2016-12-18T02:34:22.581Z,93.08
2016-12-18T02:34:48.701Z,93.08
2016-12-18T02:35:14.809Z,92.8
2016-12-18T02:35:40.927Z,92.8
2016-12-18T02:36:07.047Z,93.08
2016-12-18T02:36:33.153Z,92.7
2016-12-18T02:36:59.265Z,92.61
2016-12-18T02:37:25.388Z,92.8
2016-12-18T02:37:51.494Z,92.61
2016-12-18T02:38:17.598Z,92.7
2016-12-18T02:38:43.721Z,93.08
2016-12-18T02:39:09.833Z,93.08
2016-12-18T02:39:35.948Z,92.89
2016-12-18T02:40:02.058Z,93.37
2016-12-18T02:40:28.169Z,93.08
2016-12-18T02:40:54.343Z,92.89
2016-12-18T02:41:20.445Z,92.89
2016-12-18T02:41:46.555Z,92.41
2016-12-18T02:42:12.675Z,92.7
2016-12-18T02:42:38.789Z,92.89
2016-12-18T02:43:04.892Z,93.37
2016-12-18T02:43:31.024Z,93.08
2016-12-18T02:43:57.137Z,92.7
2016-12-18T02:44:23.247Z,92.89
2016-12-18T02:44:49.357Z,92.7
2016-12-18T02:45:15.468Z,92.61
2016-12-18T02:45:41.591Z,92.7
2016-12-18T02:46:07.702Z,92.13
2016-12-18T02:46:33.808Z,91.94
2016-12-18T02:46:59.934Z,92.03
2016-12-18T02:47:26.042Z,92.03
2016-12-18T02:47:52.148Z,92.13
2016-12-18T02:48:18.268Z,92.22
2016-12-18T02:48:44.391Z,92.32
2016-12-18T02:49:10.488Z,91.56
2016-12-18T02:49:36.602Z,91.85
2016-12-18T02:50:02.712Z,91.85
2016-12-18T02:50:28.832Z,91.85
2016-12-18T02:50:54.946Z,92.22
2016-12-18T02:51:21.054Z,92.32
2016-12-18T02:51:47.169Z,92.32
2016-12-18T02:52:13.294Z,91.66
2016-12-18T02:52:39.401Z,91.85
2016-12-18T02:53:05.513Z,91.85
2016-12-18T02:53:31.635Z,91.66
2016-12-18T02:53:57.740Z,91.75
2016-12-18T02:54:23.858Z,92.41
2016-12-18T02:54:49.981Z,91.85
2016-12-18T02:55:16.125Z,92.41
2016-12-18T02:55:42.242Z,92.41
2016-12-18T02:56:08.345Z,92.22
2016-12-18T02:56:34.469Z,92.41
2016-12-18T02:57:00.590Z,92.32
2016-12-18T02:57:26.690Z,92.32
2016-12-18T02:57:52.797Z,91.85
2016-12-18T02:58:18.926Z,91.56
2016-12-18T02:58:45.031Z,91.94
2016-12-18T02:59:11.144Z,91.66
2016-12-18T02:59:37.269Z,91.75
2016-12-18T03:00:03.388Z,91.66
2016-12-18T03:00:29.488Z,92.41
2016-12-18T03:00:55.614Z,92.32
2016-12-18T03:01:21.727Z,91.94
2016-12-18T03:01:47.865Z,91.75
2016-12-18T03:02:13.978Z,92.03
2016-12-18T03:02:40.105Z,91.94
2016-12-18T03:03:06.203Z,91.66
2016-12-18T03:03:32.321Z,91.66
2016-12-18T03:03:58.439Z,91.66
2016-12-18T03:04:24.550Z,91.75
2016-12-18T03:04:50.660Z,91.56
2016-12-18T03:05:16.782Z,91.56
2016-12-18T03:05:42.884Z,91.66
2016-12-18T03:06:08.987Z,91.75
2016-12-18T03:06:35.109Z,91.85
2016-12-18T03:07:01.221Z,92.41
2016-12-18T03:07:27.342Z,92.32
2016-12-18T03:07:53.448Z,91.75
2016-12-18T03:08:19.559Z,91.56
2016-12-18T03:08:45.686Z,91.75
2016-12-18T03:09:11.797Z,91.18
2016-12-18T03:09:37.901Z,91.28
2016-12-18T03:10:04.022Z,91.28
2016-12-18T03:10:30.135Z,91.28
2016-12-18T03:10:56.265Z,91.47
2016-12-18T03:11:22.430Z,90.99
2016-12-18T03:11:48.548Z,91.42
2016-12-18T03:12:14.664Z,91.18
2016-12-18T03:12:40.768Z,90.52
2016-12-18T03:13:06.878Z,91.08
2016-12-18T03:13:33.001Z,90.8
2016-12-18T03:13:59.115Z,90.8
2016-12-18T03:14:25.214Z,90.42
2016-12-18T03:14:51.339Z,90.7
2016-12-18T03:15:17.450Z,90.42
2016-12-18T03:15:43.552Z,90.04
2016-12-18T03:16:09.674Z,90.42
2016-12-18T03:16:35.794Z,90.04
2016-12-18T03:17:01.896Z,89.85
2016-12-18T03:17:28.012Z,90.47
2016-12-18T03:17:54.124Z,89.94
2016-12-18T03:18:20.244Z,90.18
2016-12-18T03:18:46.353Z,90.04
2016-12-18T03:19:12.465Z,89.66
2016-12-18T03:19:38.582Z,89.66
2016-12-18T03:20:04.707Z,89.85
2016-12-18T03:20:30.804Z,89.85
2016-12-18T03:20:56.926Z,89.94
2016-12-18T03:21:23.049Z,89.75
2016-12-18T03:21:49.158Z,89.66
2016-12-18T03:22:15.264Z,90.04
2016-12-18T03:22:41.385Z,89.7
2016-12-18T03:23:07.499Z,90.37
2016-12-18T03:23:33.613Z,89.28
2016-12-18T03:23:59.713Z,89.28
2016-12-18T03:24:25.831Z,90.66
2016-12-18T03:24:51.950Z,90.18
2016-12-18T03:25:18.056Z,89.99
2016-12-18T03:25:44.169Z,90.23
2016-12-18T03:26:10.292Z,90.18
2016-12-18T03:26:36.395Z,89.94
2016-12-18T03:27:02.499Z,89.85
2016-12-18T03:27:28.628Z,89.99
2016-12-18T03:27:54.742Z,89.61
2016-12-18T03:28:20.849Z,90.08
2016-12-18T03:28:46.966Z,90.28
2016-12-18T03:29:13.081Z,90.28
2016-12-18T03:29:39.205Z,89.51
2016-12-18T03:30:05.318Z,89.7
2016-12-18T03:30:31.423Z,89.7
2016-12-18T03:30:57.544Z,89.42
2016-12-18T03:31:23.652Z,89.37
2016-12-18T03:31:49.756Z,89.37
2016-12-18T03:32:15.879Z,89.51
2016-12-18T03:32:41.999Z,89.51
2016-12-18T03:33:08.107Z,89.51
2016-12-18T03:33:34.226Z,90.47
2016-12-18T03:34:00.342Z,89.51
2016-12-18T03:34:26.457Z,89.42
2016-12-18T03:34:52.573Z,89.7
2016-12-18T03:35:18.677Z,89.37
2016-12-18T03:35:44.801Z,89.42
2016-12-18T03:36:10.918Z,89.7
2016-12-18T03:36:37.026Z,89.61
2016-12-18T03:37:03.147Z,89.61
2016-12-18T03:37:29.274Z,89.61
2016-12-18T03:37:55.371Z,89.51
2016-12-18T03:38:21.486Z,89.42
2016-12-18T03:38:47.611Z,89.7
2016-12-18T03:39:13.720Z,89.14
2016-12-18T03:39:39.836Z,89.61
2016-12-18T03:40:05.948Z,89.42
2016-12-18T03:40:32.072Z,89.7
2016-12-18T03:40:58.200Z,89.32
2016-12-18T03:41:24.354Z,89.42
2016-12-18T03:41:50.474Z,89.56
2016-12-18T03:42:16.590Z,89.51
2016-12-18T03:42:42.695Z,89.37
2016-12-18T03:43:08.800Z,89.7
2016-12-18T03:43:34.931Z,89.28
2016-12-18T03:44:01.040Z,89.23
2016-12-18T03:44:27.145Z,89.7
2016-12-18T03:44:53.269Z,89.42
2016-12-18T03:45:19.377Z,89.61
2016-12-18T03:45:45.479Z,89.09
2016-12-18T03:46:11.606Z,89.04
2016-12-18T03:46:37.723Z,89.23
2016-12-18T03:47:03.828Z,88.94
2016-12-18T03:47:29.945Z,88.94
2016-12-18T03:47:56.068Z,89
2016-12-18T03:48:22.166Z,89.61
2016-12-18T03:48:48.284Z,89.32
2016-12-18T03:49:14.409Z,89.14
2016-12-18T03:49:40.511Z,89.09
2016-12-18T03:50:06.628Z,89.37
2016-12-18T03:50:32.744Z,89.09
2016-12-18T03:50:58.858Z,89.56
2016-12-18T03:51:24.983Z,89.37
2016-12-18T03:51:51.087Z,89.28
2016-12-18T03:52:17.203Z,89.47
2016-12-18T03:52:43.324Z,89.47
2016-12-18T03:53:09.427Z,89.37
2016-12-18T03:53:35.538Z,89.61
2016-12-18T03:54:01.668Z,89.51
2016-12-18T03:54:27.777Z,88.9
2016-12-18T03:54:53.879Z,89.28
2016-12-18T03:55:20.005Z,89.51
2016-12-18T03:55:46.118Z,89.23
2016-12-18T03:56:12.225Z,89.7
2016-12-18T03:56:38.345Z,89.8
2016-12-18T03:57:04.451Z,89
2016-12-18T03:57:30.571Z,88.94
2016-12-18T03:57:56.679Z,89.7
2016-12-18T03:58:22.784Z,89.7
2016-12-18T03:58:48.908Z,89.61
2016-12-18T03:59:15.020Z,89.14
2016-12-18T03:59:41.127Z,88.85
2016-12-18T04:00:07.250Z,88.75
2016-12-18T04:00:33.366Z,88.66
2016-12-18T04:00:59.471Z,88.56
2016-12-18T04:01:25.593Z,88.85
2016-12-18T04:01:51.709Z,88.56
2016-12-18T04:02:17.820Z,88.37
2016-12-18T04:02:43.932Z,88.66
2016-12-18T04:03:10.041Z,88.46
2016-12-18T04:03:36.168Z,88.56
2016-12-18T04:04:02.315Z,88.46
2016-12-18T04:04:28.420Z,88.46
2016-12-18T04:04:54.538Z,88.85
2016-12-18T04:05:20.660Z,88.56
2016-12-18T04:05:46.760Z,88.37
2016-12-18T04:06:12.873Z,88.37
2016-12-18T04:06:38.998Z,88.66
2016-12-18T04:07:05.106Z,88.75
2016-12-18T04:07:31.225Z,88.37
2016-12-18T04:07:57.329Z,88.85
2016-12-18T04:08:23.448Z,88.28
2016-12-18T04:08:49.578Z,88.66
2016-12-18T04:09:15.679Z,88.85
2016-12-18T04:09:41.793Z,88.85
2016-12-18T04:10:07.914Z,88.46
2016-12-18T04:10:34.021Z,88.75
2016-12-18T04:11:00.131Z,88.28
2016-12-18T04:11:26.247Z,88.85
2016-12-18T04:11:52.405Z,88.75
2016-12-18T04:12:18.515Z,89.04
2016-12-18T04:12:45.633Z,89.04
2016-12-18T04:13:10.753Z,89.42
2016-12-18T04:13:36.876Z,88.56
2016-12-18T04:14:02.978Z,88.75
2016-12-18T04:14:29.089Z,88.66
2016-12-18T04:14:55.209Z,88.75
2016-12-18T04:15:21.322Z,88.46
2016-12-18T04:15:47.428Z,88.56
2016-12-18T04:16:13.555Z,88.46
2016-12-18T04:16:39.669Z,88.37
2016-12-18T04:17:05.768Z,88.56
2016-12-18T04:17:31.896Z,88.56
2016-12-18T04:17:58.006Z,88.66
2016-12-18T04:18:24.109Z,88.66
2016-12-18T04:18:50.225Z,88.46
2016-12-18T04:19:16.325Z,88.46
2016-12-18T04:19:42.456Z,88.94
2016-12-18T04:20:08.575Z,88.46
2016-12-18T04:20:34.677Z,88.56
2016-12-18T04:21:00.798Z,88.66
2016-12-18T04:21:26.911Z,88.66
2016-12-18T04:21:53.022Z,88.94
2016-12-18T04:22:19.139Z,88.66
2016-12-18T04:22:45.259Z,88.71
2016-12-18T04:23:11.354Z,88.66
2016-12-18T04:23:37.477Z,88.66
2016-12-18T04:24:03.594Z,88.75
2016-12-18T04:24:29.733Z,88.56
2016-12-18T04:24:55.851Z,88.46
2016-12-18T04:25:21.956Z,88.75
2016-12-18T04:25:48.074Z,88.66
2016-12-18T04:26:14.194Z,88.37
2016-12-18T04:26:40.302Z,88.28
2016-12-18T04:27:06.421Z,88.66
2016-12-18T04:27:32.540Z,88.46
2016-12-18T04:27:58.643Z,88.66
2016-12-18T04:28:24.757Z,88.66
2016-12-18T04:28:50.881Z,88.56
2016-12-18T04:29:16.985Z,88.46
2016-12-18T04:29:43.094Z,88.42
2016-12-18T04:30:09.219Z,88.75
2016-12-18T04:30:35.329Z,88.66
2016-12-18T04:31:01.435Z,88.56
2016-12-18T04:31:27.556Z,88.75
2016-12-18T04:31:53.671Z,88.66
2016-12-18T04:32:19.782Z,89.42
2016-12-18T04:32:45.899Z,89.18
2016-12-18T04:33:12.019Z,89.18
2016-12-18T04:33:38.124Z,89.28
2016-12-18T04:34:04.238Z,89.18
2016-12-18T04:34:30.359Z,89.85
2016-12-18T04:34:56.464Z,89.47
2016-12-18T04:35:22.580Z,89.37
2016-12-18T04:35:48.689Z,89.28
2016-12-18T04:36:14.813Z,89.56
2016-12-18T04:36:40.936Z,89.47
2016-12-18T04:37:07.036Z,89.47
2016-12-18T04:37:33.149Z,89.37
2016-12-18T04:37:59.265Z,89.47
2016-12-18T04:38:25.375Z,90.23
2016-12-18T04:38:51.487Z,90.23
2016-12-18T04:39:17.607Z,89.75
2016-12-18T04:39:43.712Z,89.94
2016-12-18T04:40:09.820Z,89.75
2016-12-18T04:40:35.940Z,90.04
2016-12-18T04:41:02.053Z,89.28
2016-12-18T04:41:28.173Z,89.66
2016-12-18T04:41:54.275Z,90.04
2016-12-18T04:42:20.430Z,89.94
2016-12-18T04:42:46.555Z,89.66
2016-12-18T04:43:12.661Z,90.33
2016-12-18T04:43:38.769Z,89.47
2016-12-18T04:44:04.891Z,89.85
2016-12-18T04:44:31.006Z,90.23
2016-12-18T04:44:57.109Z,90.14
2016-12-18T04:45:23.232Z,90.23
2016-12-18T04:45:49.343Z,90.42
2016-12-18T04:46:15.453Z,89.56
2016-12-18T04:46:41.578Z,89.37
2016-12-18T04:47:07.682Z,89.37
2016-12-18T04:47:33.812Z,89.47
2016-12-18T04:47:59.925Z,89.28
2016-12-18T04:48:26.030Z,89.66
2016-12-18T04:48:52.149Z,89.66
2016-12-18T04:49:18.263Z,89.37
2016-12-18T04:49:44.370Z,89.47
2016-12-18T04:50:10.489Z,89.28
2016-12-18T04:50:36.607Z,89.66
2016-12-18T04:51:02.715Z,89.47
2016-12-18T04:51:28.828Z,89.66
2016-12-18T04:51:54.952Z,89.56
2016-12-18T04:52:21.052Z,89.66
2016-12-18T04:52:47.188Z,89.47
2016-12-18T04:53:13.286Z,89.37
2016-12-18T04:53:39.403Z,89.56
2016-12-18T04:54:05.522Z,89.66
2016-12-18T04:54:31.619Z,89.66
2016-12-18T04:54:57.736Z,89.66
2016-12-18T04:55:23.859Z,89.47
2016-12-18T04:55:49.966Z,89.56
2016-12-18T04:56:16.079Z,89.94
2016-12-18T04:56:42.236Z,90.14
2016-12-18T04:57:08.342Z,90.14
2016-12-18T04:57:34.443Z,89.94
2016-12-18T04:58:00.564Z,91.08
2016-12-18T04:58:26.680Z,90.14
2016-12-18T04:58:52.801Z,89.85
2016-12-18T04:59:18.909Z,90.04
2016-12-18T04:59:45.023Z,90.14
2016-12-18T05:00:11.140Z,90.23
2016-12-18T05:00:37.248Z,90.14
2016-12-18T05:01:03.356Z,90.14
2016-12-18T05:01:29.478Z,89.94
2016-12-18T05:01:55.592Z,89.75
2016-12-18T05:02:21.693Z,89.85
2016-12-18T05:02:47.819Z,90.04
2016-12-18T05:03:13.935Z,89.85
2016-12-18T05:03:40.047Z,90.04
2016-12-18T05:04:06.155Z,89.47
2016-12-18T05:04:32.262Z,90.33
2016-12-18T05:04:58.385Z,90.33
2016-12-18T05:05:24.499Z,90.33
2016-12-18T05:05:50.605Z,90.33
2016-12-18T05:06:16.726Z,90.33
2016-12-18T05:06:42.837Z,89.94
2016-12-18T05:07:08.950Z,90.33
2016-12-18T05:07:35.071Z,90.04
2016-12-18T05:08:01.195Z,90.14
2016-12-18T05:08:27.297Z,90.04
2016-12-18T05:08:53.406Z,89.47
2016-12-18T05:09:19.519Z,89.37
2016-12-18T05:09:45.641Z,89.66
2016-12-18T05:10:11.754Z,89.94
2016-12-18T05:10:37.859Z,90.04
2016-12-18T05:11:03.972Z,90.04
2016-12-18T05:11:30.095Z,90.23
2016-12-18T05:11:56.203Z,90.33
2016-12-18T05:12:22.320Z,90.23
2016-12-18T05:12:48.438Z,89.85
2016-12-18T05:13:14.547Z,89.94
2016-12-18T05:13:40.670Z,90.04
2016-12-18T05:14:06.784Z,89.94
2016-12-18T05:14:32.894Z,89.85
2016-12-18T05:14:58.999Z,89.94
2016-12-18T05:15:25.124Z,90.42
2016-12-18T05:15:51.269Z,89.85
2016-12-18T05:16:17.377Z,89.94
2016-12-18T05:16:43.500Z,90.33
2016-12-18T05:17:09.616Z,90.23
2016-12-18T05:17:35.723Z,90.23
2016-12-18T05:18:01.840Z,89.94
2016-12-18T05:18:27.955Z,91.18
2016-12-18T05:18:54.060Z,90.23
2016-12-18T05:19:20.177Z,90.33
2016-12-18T05:19:46.299Z,90.14
2016-12-18T05:20:12.404Z,90.42
2016-12-18T05:20:38.523Z,90.23
2016-12-18T05:21:04.628Z,90.14
2016-12-18T05:21:30.746Z,90.42
2016-12-18T05:21:56.872Z,90.04
2016-12-18T05:22:22.973Z,90.33
2016-12-18T05:22:49.086Z,90.47
2016-12-18T05:23:15.202Z,90.47
2016-12-18T05:23:41.310Z,90.66
2016-12-18T05:24:07.426Z,90.66
2016-12-18T05:24:33.581Z,90.47
2016-12-18T05:24:59.687Z,91.08
2016-12-18T05:25:25.790Z,90.47
2016-12-18T05:25:51.908Z,90.42
2016-12-18T05:26:18.026Z,90.33
2016-12-18T05:26:44.149Z,90.56
2016-12-18T05:27:10.255Z,91.04
2016-12-18T05:27:36.368Z,90.66
2016-12-18T05:28:02.495Z,91.04
2016-12-18T05:28:28.603Z,90.66
2016-12-18T05:28:54.713Z,90.47
2016-12-18T05:29:20.836Z,90.75
2016-12-18T05:29:46.942Z,90.47
2016-12-18T05:30:13.048Z,90.7
2016-12-18T05:30:39.173Z,90.47
2016-12-18T05:31:05.292Z,90.52
2016-12-18T05:31:31.403Z,90.75
2016-12-18T05:31:57.506Z,90.47
2016-12-18T05:32:23.605Z,91.08
2016-12-18T05:32:49.732Z,90.99
2016-12-18T05:33:15.841Z,90.42
2016-12-18T05:33:41.944Z,90.23
2016-12-18T05:34:08.067Z,90.23
2016-12-18T05:34:34.180Z,90.42
2016-12-18T05:35:00.288Z,90.42
2016-12-18T05:35:26.410Z,90.99
2016-12-18T05:35:52.531Z,90.14
2016-12-18T05:36:18.628Z,90.33
2016-12-18T05:36:44.742Z,90.8
2016-12-18T05:37:10.872Z,90.42
2016-12-18T05:37:36.983Z,90.75